x

Halibut Bank (46146) Wave Buoy

7:00 - Sat 28th May 2016 All times are PDT. -7 hours from GMT.

  • Sig Wave height 2.6ft
  • Peak Period 5s
  • Wind
    13mph, 18mph gusts
  • Sea Temp 56°f
  • Sea Pressure 1014.6mb
  • Halibut Bank
  • Halibut Bank

More Historic Weather Station data

Upgrade to MSW Pro to gain access to the past 30 days of data for over 8000 Wavebouys and Weather Stations around the globe.

Join Pro

Comparision Forecast

View Surf forecast
   
sam. 05/28 7:00 2.5ft 5s 13 18 mph 1014.6mb 56f
6:00 2.5ft 5s 16 20 mph 1014.4mb 56f
5:00 3.5ft 5s 13 18 mph 1014.3mb 57f
4:00 4ft 5s 18 22 mph 1014.3mb 57f
3:00 4.5ft 5s 20 25 mph 1014.2mb 57f
2:00 4.5ft 5s 20 25 mph 1014.1mb 57f
1:00 4.5ft 5s 22 29 mph 1013.8mb 57f
12:00 3.5ft 5s 27 36 mph 1013.9mb 57f
11:00 3.5ft 4s 27 31 mph 1013.8mb 57f
10:00 3.5ft 4s 25 31 mph 1014mb 57f
9:00 3.5ft 4s 27 31 mph 1014.5mb 57f
8:00 3ft 3s 25 31 mph 1015mb 58f
7:00 1.6ft 3s 22 27 mph 1015.4mb 58f
6:00 1.3ft 3s 20 22 mph 1016mb 58f
5:00 1ft 3s 13 18 mph 1016.4mb 58f
4:00 1ft 2s 9 11 mph 1016.9mb 58f
3:00 0.7ft 2s 16 18 mph 1017.1mb 59f
2:00 0.7ft 2s 7
mph
1017.2mb 58f
1:00 0.3ft 2s 11 16 mph 1017.6mb 58f
12:00 0.3ft 3s 4 7 mph 1018mb 59f
ven. 05/27 11:00 0.3ft 6s 4
mph
1018.1mb 58f
10:00 0.3ft 3s 2 4 mph 1018.4mb 58f
9:00 0.7ft 2s 4 7 mph 1018.1mb 59f
8:00 0.7ft 6s 11 13 mph 1018.3mb 59f
7:00 1ft 2s 9 11 mph 1018.5mb 59f
6:00 0.7ft 4s 22 27 mph 1018.8mb 60f
5:00 0.7ft 2s 2 4 mph 1018.8mb 60f
4:00 0.3ft 6s 11 13 mph 1019mb 60f
3:00 0.7ft 3s 9 11 mph 1019.5mb 60f
2:00 0.7ft 3s 9 11 mph 1019.5mb 60f
1:00 0.7ft 3s 4
mph
1019.6mb 60f
12:00 1ft 3s 9
mph
1019.8mb 59f
11:00 1ft 3s 7 11 mph 1019.6mb 58f
10:00 1.3ft 3s 9 11 mph 1019.5mb 58f
9:00 1.3ft 3s 11 13 mph 1019.3mb 57f
8:00 1.3ft 3s 13 18 mph 1019.3mb 57f
7:00 1ft 4s 11 13 mph 1019.1mb 57f
6:00 1ft 3s 11 13 mph 1018.9mb 57f
4:00 1.3ft 4s 11 13 mph 1018.6mb 58f
3:00 2ft 4s 16 18 mph 1018.6mb 58f
2:00 1.6ft 4s 16 20 mph 1018.3mb 58f
1:00 0.7ft 2s 18 22 mph 1018.1mb 58f
12:00 0.3ft 3s 4 7 mph 1018.4mb 58f
jeu. 05/26 11:00 0.7ft 3s 2
mph
1018.8mb 58f
10:00 0.7ft 3s 2 4 mph 1018.7mb 58f
9:00 1ft 3s 4 7 mph 1018.7mb 58f
8:00 1.3ft 3s 4 7 mph 1018.4mb 59f
7:00 1.6ft 3s 11 13 mph 1018.4mb 59f
6:00 2ft 3s 11 16 mph 1018.2mb 60f
5:00 1.6ft 3s 18 20 mph 1018.4mb 60f
4:00 1.6ft 3s 18 20 mph 1018.9mb 60f
3:00 1.6ft 3s 16 18 mph 1019.8mb 60f
2:00 1.3ft 3s 16 18 mph 1020.2mb 60f
1:00 1.3ft 3s 11 13 mph 1020.6mb 60f
12:00 1.6ft 3s 2 9 mph 1020.9mb 60f
11:00 1.3ft 3s 11 20 mph 1020.9mb 60f
10:00 1.6ft 4s 7 11 mph 1020.9mb 60f
9:00 2ft 4s 9 11 mph 1020.6mb 60f
8:00 2ft 3s 11 16 mph 1020.6mb 60f
7:00 2ft 3s 11 13 mph 1020.7mb 60f
6:00 2ft 4s 13 16 mph 1020.7mb 60f
5:00 2ft 3s 13 16 mph 1020.4mb 60f
4:00 1.6ft 4s 13 16 mph 1020.4mb 60f
3:00 1.3ft 3s 11 13 mph 1020.7mb 60f
2:00 1ft 3s 7 9 mph 1020.7mb 61f
1:00 1ft 3s 9 11 mph 1020.3mb 61f
12:00 0.7ft 3s 11 13 mph 1019.9mb 61f
mer. 05/25 11:00 0.7ft 6s 11 13 mph 1019.8mb 62f
10:00 0.7ft 3s 9 11 mph 1019.6mb 62f
9:00 0.3ft 4s 7 9 mph 1019.5mb 62f
8:00 0.3ft 3s 9
mph
1019.3mb 62f
7:00 0.7ft 3s 9 13 mph 1019.2mb 63f
6:00 0.7ft 7s 11 13 mph 1019.4mb 62f
5:00 0.7ft 3s 9 11 mph 1019.9mb 63f
4:00 0.7ft 3s 9
mph
1020.1mb 63f
3:00 0.7ft 4s 2 4 mph 1020.2mb 64f
2:00 1ft 4s 4
mph
1020.5mb 62f
1:00 1ft 4s 4
mph
1020.3mb 61f
12:00 1.3ft 4s 9 11 mph 1020.2mb 60f
11:00 1.6ft 4s 11 13 mph 1019.9mb 59f
10:00 1.6ft 4s 13 16 mph 1019.6mb 59f
9:00 1.6ft 4s 13 16 mph 1019.3mb 59f
8:00 2ft 4s 16 18 mph 1018.9mb 59f
7:00 1.6ft 4s 16 20 mph 1018.3mb 59f
6:00 1.6ft 4s 16 18 mph 1017.9mb 59f
5:00 0.7ft 3s  -  2 mph 1017.7mb 59f
4:00 0.7ft 3s 2 4 mph 1017.4mb 59f